createdAt,value
2019-02-10T00:00:36.817Z,72.10
2019-02-10T00:04:46.723Z,72.06
2019-02-10T00:08:53.959Z,72.45
2019-02-10T00:13:40.932Z,72.26
2019-02-10T00:17:48.046Z,72.25
2019-02-10T00:21:55.103Z,71.90
2019-02-10T00:26:01.991Z,71.82
2019-02-10T00:30:08.991Z,71.82
2019-02-10T00:34:16.236Z,72.08
2019-02-10T00:38:23.182Z,71.99
2019-02-10T00:42:30.318Z,72.23
2019-02-10T00:46:37.135Z,73.06
2019-02-10T00:50:46.088Z,73.07
2019-02-10T00:54:53.044Z,73.27
2019-02-10T00:58:59.881Z,73.33
2019-02-10T01:03:07.963Z,73.49
2019-02-10T01:07:15.031Z,73.27
2019-02-10T01:11:22.047Z,73.04
2019-02-10T01:15:28.934Z,73.64
2019-02-10T01:19:35.932Z,73.98
2019-02-10T01:23:42.765Z,74.25
2019-02-10T01:27:49.626Z,73.24
2019-02-10T01:31:56.595Z,73.04
2019-02-10T01:36:04.508Z,72.94
2019-02-10T01:40:12.039Z,72.58
2019-02-10T01:44:20.016Z,72.38
2019-02-10T01:48:27.506Z,72.04
2019-02-10T01:52:34.490Z,72.17
2019-02-10T01:56:41.422Z,72.01
2019-02-10T02:00:49.619Z,71.72
2019-02-10T02:04:56.551Z,71.68
2019-02-10T02:09:05.031Z,71.26
2019-02-10T02:13:12.275Z,71.08
2019-02-10T02:17:19.176Z,71.13
2019-02-10T02:21:26.222Z,70.52
2019-02-10T02:25:33.114Z,70.29
2019-02-10T02:29:40.105Z,70.03
2019-02-10T02:33:47.523Z,69.90
2019-02-10T02:37:54.573Z,69.73
2019-02-10T02:42:01.602Z,69.83
2019-02-10T02:46:08.773Z,69.22
2019-02-10T02:50:15.784Z,68.72
2019-02-10T02:54:22.761Z,67.61
2019-02-10T02:58:29.745Z,68.66
2019-02-10T03:02:36.720Z,68.99
2019-02-10T03:06:47.237Z,68.34
2019-02-10T03:10:54.033Z,67.97
2019-02-10T03:15:00.881Z,67.60
2019-02-10T03:19:07.883Z,67.55
2019-02-10T03:23:14.726Z,67.22
2019-02-10T03:27:21.820Z,67.03
2019-02-10T03:31:29.251Z,66.28
2019-02-10T03:35:36.661Z,66.29
2019-02-10T03:39:43.888Z,66.95
2019-02-10T03:43:50.935Z,69.12
2019-02-10T03:47:58.082Z,69.94
2019-02-10T03:52:06.076Z,70.22
2019-02-10T03:56:12.971Z,70.98
2019-02-10T04:00:20.046Z,72.24
2019-02-10T04:04:27.193Z,73.64
2019-02-10T04:08:34.110Z,73.17
2019-02-10T04:12:40.966Z,75.27
2019-02-10T04:16:47.921Z,74.78
2019-02-10T04:20:54.805Z,75.02
2019-02-10T04:25:01.868Z,75.00
2019-02-10T04:29:08.820Z,74.07
2019-02-10T04:33:16.724Z,74.36
2019-02-10T04:37:23.719Z,74.19
2019-02-10T04:41:30.663Z,74.80
2019-02-10T04:45:37.899Z,76.13
2019-02-10T04:49:44.752Z,76.36
2019-02-10T04:53:51.608Z,75.92
2019-02-10T04:57:58.425Z,76.95
2019-02-10T05:02:05.702Z,76.96
2019-02-10T05:06:12.764Z,77.43
2019-02-10T05:10:21.792Z,77.35
2019-02-10T05:14:29.494Z,77.52
2019-02-10T05:18:36.340Z,78.34
2019-02-10T05:22:43.338Z,78.43
2019-02-10T05:26:50.595Z,78.75
2019-02-10T05:30:57.502Z,77.90
2019-02-10T05:35:04.383Z,77.76
2019-02-10T05:39:11.266Z,77.38
2019-02-10T05:43:18.108Z,77.68
2019-02-10T05:47:25.035Z,76.80
2019-02-10T05:51:32.011Z,75.50
2019-02-10T05:55:39.027Z,75.01
2019-02-10T05:59:46.015Z,75.26
2019-02-10T06:03:53.039Z,74.30
2019-02-10T06:07:59.981Z,73.81
2019-02-10T06:12:06.885Z,72.96
2019-02-10T06:16:14.042Z,73.04
2019-02-10T06:20:21.066Z,71.79
2019-02-10T06:24:28.265Z,71.19
2019-02-10T06:28:35.131Z,70.85
2019-02-10T06:32:42.085Z,70.36
2019-02-10T06:36:48.973Z,69.90
2019-02-10T06:40:55.811Z,69.15
2019-02-10T06:45:04.131Z,68.43
2019-02-10T06:49:11.005Z,68.74
2019-02-10T06:53:18.164Z,68.91
2019-02-10T06:57:26.868Z,68.94
2019-02-10T07:01:41.088Z,69.02
2019-02-10T07:05:47.976Z,69.19
2019-02-10T07:09:55.012Z,68.68
2019-02-10T07:14:06.797Z,68.51
2019-02-10T07:19:12.515Z,68.27
2019-02-10T07:24:26.193Z,67.74
2019-02-10T07:29:10.961Z,67.34
2019-02-10T07:33:50.411Z,66.74
2019-02-10T07:38:21.584Z,65.86
2019-02-10T07:43:19.254Z,66.23
2019-02-10T07:48:24.126Z,65.51
2019-02-10T07:53:24.238Z,65.23
2019-02-10T07:58:10.394Z,65.62
2019-02-10T08:03:19.187Z,65.68
2019-02-10T08:08:29.893Z,65.92
2019-02-10T08:13:23.276Z,65.96
2019-02-10T08:17:59.094Z,67.87
2019-02-10T08:22:50.537Z,67.62
2019-02-10T08:27:55.958Z,68.74
2019-02-10T08:32:27.012Z,69.05
2019-02-10T08:36:57.639Z,70.13
2019-02-10T08:42:03.967Z,70.35
2019-02-10T08:46:49.801Z,70.43
2019-02-10T08:51:36.959Z,70.23
2019-02-10T08:55:44.090Z,70.46
2019-02-10T08:59:51.213Z,70.09
2019-02-10T09:04:01.232Z,69.51
2019-02-10T09:08:08.538Z,69.32
2019-02-10T09:12:15.502Z,68.78
2019-02-10T09:16:22.410Z,69.77
2019-02-10T09:20:31.014Z,69.81
2019-02-10T09:24:39.318Z,69.25
2019-02-10T09:28:46.527Z,68.22
2019-02-10T09:32:53.587Z,68.27
2019-02-10T09:37:00.634Z,67.58
2019-02-10T09:41:07.575Z,66.76
2019-02-10T09:45:15.040Z,67.17
2019-02-10T09:49:22.093Z,66.14
2019-02-10T09:53:28.988Z,66.45
2019-02-10T09:57:40.624Z,64.99
2019-02-10T10:01:47.844Z,65.96
2019-02-10T10:05:55.947Z,66.26
2019-02-10T10:10:02.871Z,67.28
2019-02-10T10:14:12.545Z,68.48
2019-02-10T10:18:19.461Z,68.33
2019-02-10T10:22:26.362Z,69.76
2019-02-10T10:26:33.295Z,70.30
2019-02-10T10:30:40.330Z,69.30
2019-02-10T10:34:47.201Z,68.36
2019-02-10T10:38:54.062Z,68.82
2019-02-10T10:43:01.023Z,70.05
2019-02-10T10:47:09.024Z,72.00
2019-02-10T10:51:15.983Z,71.30
2019-02-10T10:55:22.855Z,74.05
2019-02-10T10:59:29.777Z,73.28
2019-02-10T11:03:36.657Z,73.93
2019-02-10T11:07:43.761Z,74.54
2019-02-10T11:11:51.982Z,74.74
2019-02-10T11:15:59.162Z,75.35
2019-02-10T11:20:06.864Z,76.06
2019-02-10T11:24:14.000Z,76.94
2019-02-10T11:28:20.977Z,77.59
2019-02-10T11:32:28.874Z,78.11
2019-02-10T11:36:35.938Z,78.36
2019-02-10T11:40:47.114Z,78.00
2019-02-10T11:44:55.054Z,78.35
2019-02-10T11:49:03.958Z,78.74
2019-02-10T11:53:12.777Z,78.86
2019-02-10T11:57:19.902Z,79.25
2019-02-10T12:01:28.938Z,78.34
2019-02-10T12:05:39.458Z,78.90
2019-02-10T12:09:51.763Z,80.00
2019-02-10T12:13:59.453Z,80.10
2019-02-10T12:18:06.303Z,80.11
2019-02-10T12:22:13.330Z,80.58
2019-02-10T12:26:20.316Z,80.62
2019-02-10T12:30:28.246Z,80.90
2019-02-10T12:34:35.197Z,80.91
2019-02-10T12:38:42.508Z,81.82
2019-02-10T12:42:49.519Z,81.91
2019-02-10T12:46:56.613Z,82.00
2019-02-10T12:51:04.072Z,82.40
2019-02-10T12:55:11.205Z,82.11
2019-02-10T12:59:18.495Z,82.46
2019-02-10T13:03:26.505Z,82.31
2019-02-10T13:07:33.338Z,82.83
2019-02-10T13:11:40.200Z,82.84
2019-02-10T13:15:47.089Z,83.03
2019-02-10T13:19:54.130Z,83.36
2019-02-10T13:24:01.007Z,83.96
2019-02-10T13:28:07.927Z,83.74
2019-02-10T13:32:15.027Z,84.65
2019-02-10T13:36:22.331Z,84.87
2019-02-10T13:40:29.160Z,84.88
2019-02-10T13:44:36.094Z,84.70
2019-02-10T13:48:43.064Z,84.62
2019-02-10T13:52:50.289Z,84.68
2019-02-10T13:56:57.204Z,85.26
2019-02-10T14:01:04.172Z,85.48
2019-02-10T14:05:11.261Z,84.95
2019-02-10T14:09:18.229Z,85.07
2019-02-10T14:13:25.172Z,85.02
2019-02-10T14:17:32.197Z,84.86
2019-02-10T14:21:39.096Z,83.83
2019-02-10T14:25:50.102Z,82.96
2019-02-10T14:29:57.198Z,82.26
2019-02-10T14:34:04.141Z,83.07
2019-02-10T14:38:11.105Z,82.40
2019-02-10T14:42:18.364Z,81.83
2019-02-10T14:46:25.377Z,81.79
2019-02-10T14:50:32.375Z,82.54
2019-02-10T14:54:39.433Z,82.03
2019-02-10T14:58:46.370Z,81.14
2019-02-10T15:02:54.233Z,81.54
2019-02-10T15:07:01.400Z,79.99
2019-02-10T15:11:10.061Z,78.80
2019-02-10T15:15:17.356Z,79.71
2019-02-10T15:19:24.377Z,78.23
2019-02-10T15:23:31.343Z,78.86
2019-02-10T15:27:40.847Z,77.33
2019-02-10T15:31:47.907Z,77.01
2019-02-10T15:35:54.874Z,77.06
2019-02-10T15:40:01.748Z,77.07
2019-02-10T15:44:10.358Z,77.48
2019-02-10T15:48:17.438Z,77.16
2019-02-10T15:52:24.625Z,75.73
2019-02-10T15:56:31.546Z,76.62
2019-02-10T16:00:38.842Z,76.29
2019-02-10T16:04:46.004Z,76.98
2019-02-10T16:08:52.946Z,77.23
2019-02-10T16:13:01.121Z,77.33
2019-02-10T16:17:08.008Z,76.14
2019-02-10T16:21:15.058Z,75.96
2019-02-10T16:25:21.963Z,76.48
2019-02-10T16:29:29.903Z,76.11
2019-02-10T16:33:36.807Z,76.61
2019-02-10T16:37:44.387Z,75.35
2019-02-10T16:41:51.259Z,75.32
2019-02-10T16:45:58.473Z,75.21
2019-02-10T16:50:07.903Z,74.58
2019-02-10T16:54:14.838Z,75.48
2019-02-10T16:58:21.738Z,74.82
2019-02-10T17:02:28.763Z,74.95
2019-02-10T17:06:35.608Z,73.78
2019-02-10T17:10:42.649Z,73.05
2019-02-10T17:14:49.765Z,72.51
2019-02-10T17:18:56.679Z,72.68
2019-02-10T17:23:04.799Z,72.53
2019-02-10T17:27:11.743Z,71.76
2019-02-10T17:31:18.653Z,71.21
2019-02-10T17:35:25.482Z,70.71
2019-02-10T17:39:32.431Z,70.68
2019-02-10T17:43:39.372Z,69.52
2019-02-10T17:47:46.184Z,69.72
2019-02-10T17:51:53.040Z,70.06
2019-02-10T17:55:59.879Z,71.40
2019-02-10T18:00:08.337Z,72.20
2019-02-10T18:04:15.483Z,72.69
2019-02-10T18:08:23.004Z,72.66
2019-02-10T18:12:30.288Z,72.62
2019-02-10T18:17:05.160Z,73.14
2019-02-10T18:21:36.854Z,73.14
2019-02-10T18:25:58.234Z,73.10
2019-02-10T18:30:24.866Z,72.69
2019-02-10T18:34:50.086Z,72.34
2019-02-10T18:39:24.970Z,72.48
2019-02-10T18:43:57.344Z,72.76
2019-02-10T18:48:16.100Z,72.45
2019-02-10T18:52:35.617Z,72.06
2019-02-10T18:57:07.605Z,72.40
2019-02-10T19:01:49.690Z,72.50
2019-02-10T19:06:14.546Z,72.44
2019-02-10T19:10:39.327Z,72.25
2019-02-10T19:15:11.191Z,71.99
2019-02-10T19:19:31.548Z,71.71
2019-02-10T19:24:00.456Z,70.84
2019-02-10T19:28:29.012Z,70.85
2019-02-10T19:32:50.169Z,71.28
2019-02-10T19:37:13.797Z,70.90
2019-02-10T19:41:39.529Z,71.24
2019-02-10T19:46:05.777Z,70.77
2019-02-10T19:50:35.113Z,70.65
2019-02-10T19:55:06.627Z,70.28
2019-02-10T19:59:35.577Z,70.39
2019-02-10T20:04:07.905Z,70.44
2019-02-10T20:08:45.571Z,70.98
2019-02-10T20:13:10.201Z,71.51
2019-02-10T20:17:33.418Z,71.59
2019-02-10T20:21:57.832Z,72.19
2019-02-10T20:26:23.381Z,72.89
2019-02-10T20:30:40.797Z,72.67
2019-02-10T20:35:12.294Z,73.05
2019-02-10T20:39:27.380Z,72.97
2019-02-10T20:43:38.583Z,73.50
2019-02-10T20:48:23.036Z,74.26
2019-02-10T20:52:49.020Z,74.51
2019-02-10T20:57:03.943Z,74.76
2019-02-10T21:01:30.032Z,75.16
2019-02-10T21:05:56.107Z,74.71
2019-02-10T21:10:21.706Z,74.95
2019-02-10T21:14:47.979Z,75.38
2019-02-10T21:19:53.961Z,75.28
2019-02-10T21:24:35.843Z,75.01
2019-02-10T21:34:08.316Z,74.67
2019-02-10T21:38:50.467Z,74.09
2019-02-10T21:43:16.207Z,73.12
2019-02-10T21:47:31.947Z,72.79
2019-02-10T21:51:38.718Z,72.83
2019-02-10T21:55:46.387Z,72.28
2019-02-10T21:59:53.856Z,72.88
2019-02-10T22:04:00.702Z,72.91
2019-02-10T22:08:07.542Z,72.85
2019-02-10T22:12:14.380Z,71.73
2019-02-10T22:16:21.200Z,71.07
2019-02-10T22:20:28.008Z,70.48
2019-02-10T22:24:34.915Z,69.79
2019-02-10T22:28:41.751Z,69.77
2019-02-10T22:32:48.701Z,69.50
2019-02-10T22:36:55.583Z,69.66
2019-02-10T22:41:02.436Z,68.52
2019-02-10T22:45:11.045Z,69.48
2019-02-10T22:49:18.841Z,68.17
2019-02-10T22:53:25.683Z,68.68
2019-02-10T22:57:34.638Z,66.57
2019-02-10T23:01:42.018Z,67.28
2019-02-10T23:05:49.216Z,66.77
2019-02-10T23:09:56.553Z,67.01
2019-02-10T23:14:03.339Z,66.66
2019-02-10T23:18:10.252Z,66.81
2019-02-10T23:22:17.154Z,67.45
2019-02-10T23:26:24.173Z,67.47
2019-02-10T23:30:31.087Z,67.42
2019-02-10T23:34:37.922Z,68.01
2019-02-10T23:38:44.873Z,67.97
2019-02-10T23:42:52.799Z,68.48
2019-02-10T23:46:59.657Z,68.98
2019-02-10T23:51:06.574Z,69.40
2019-02-10T23:55:13.384Z,69.52
2019-02-10T23:59:20.191Z,70.62
